sensor_id;sensor_type;location;lat;lon;timestamp;P1;durP1;ratioP1;P2;durP2;ratioP2
19802;SDS011;66074;50.764;6.090;2023-04-03T00:00:32;1.88;;;1.58;;
19802;SDS011;66074;50.764;6.090;2023-04-03T00:02:57;3.00;;;1.88;;
19802;SDS011;66074;50.764;6.090;2023-04-03T00:05:23;3.47;;;1.38;;
19802;SDS011;66074;50.764;6.090;2023-04-03T00:07:49;2.22;;;1.85;;
19802;SDS011;66074;50.764;6.090;2023-04-03T00:10:15;2.50;;;1.42;;
19802;SDS011;66074;50.764;6.090;2023-04-03T00:12:41;2.45;;;1.42;;
19802;SDS011;66074;50.764;6.090;2023-04-03T00:15:07;2.70;;;1.75;;
19802;SDS011;66074;50.764;6.090;2023-04-03T00:17:34;2.63;;;1.85;;
19802;SDS011;66074;50.764;6.090;2023-04-03T00:20:00;2.83;;;1.63;;
19802;SDS011;66074;50.764;6.090;2023-04-03T00:22:26;1.90;;;1.35;;
19802;SDS011;66074;50.764;6.090;2023-04-03T00:24:53;2.58;;;1.30;;
19802;SDS011;66074;50.764;6.090;2023-04-03T00:27:19;1.65;;;1.20;;
19802;SDS011;66074;50.764;6.090;2023-04-03T00:29:45;2.70;;;1.70;;
19802;SDS011;66074;50.764;6.090;2023-04-03T00:32:10;1.48;;;1.38;;
19802;SDS011;66074;50.764;6.090;2023-04-03T00:34:36;2.47;;;1.25;;
19802;SDS011;66074;50.764;6.090;2023-04-03T00:37:01;1.67;;;1.40;;
19802;SDS011;66074;50.764;6.090;2023-04-03T00:39:27;2.72;;;1.60;;
19802;SDS011;66074;50.764;6.090;2023-04-03T00:41:53;2.42;;;1.55;;
19802;SDS011;66074;50.764;6.090;2023-04-03T00:44:23;1.90;;;1.48;;
19802;SDS011;66074;50.764;6.090;2023-04-03T00:47:08;1.50;;;1.08;;
19802;SDS011;66074;50.764;6.090;2023-04-03T00:49:39;2.33;;;1.50;;
19802;SDS011;66074;50.764;6.090;2023-04-03T00:52:06;3.08;;;1.75;;
19802;SDS011;66074;50.764;6.090;2023-04-03T00:54:37;1.58;;;1.33;;
19802;SDS011;66074;50.764;6.090;2023-04-03T00:57:03;1.70;;;1.60;;
19802;SDS011;66074;50.764;6.090;2023-04-03T00:59:31;2.45;;;1.60;;
19802;SDS011;66074;50.764;6.090;2023-04-03T01:02:00;1.55;;;1.30;;
19802;SDS011;66074;50.764;6.090;2023-04-03T01:06:57;2.75;;;1.20;;
19802;SDS011;66074;50.764;6.090;2023-04-03T01:09:45;2.47;;;1.50;;
19802;SDS011;66074;50.764;6.090;2023-04-03T01:14:42;1.23;;;1.13;;
19802;SDS011;66074;50.764;6.090;2023-04-03T01:25:32;2.75;;;1.23;;
19802;SDS011;66074;50.764;6.090;2023-04-03T01:27:59;2.38;;;1.30;;
19802;SDS011;66074;50.764;6.090;2023-04-03T01:30:26;2.60;;;1.15;;
19802;SDS011;66074;50.764;6.090;2023-04-03T01:32:56;1.35;;;1.20;;
19802;SDS011;66074;50.764;6.090;2023-04-03T01:35:22;2.05;;;1.50;;
19802;SDS011;66074;50.764;6.090;2023-04-03T01:37:48;3.10;;;1.30;;
19802;SDS011;66074;50.764;6.090;2023-04-03T01:40:13;1.83;;;1.27;;
19802;SDS011;66074;50.764;6.090;2023-04-03T01:42:39;2.42;;;1.80;;
19802;SDS011;66074;50.764;6.090;2023-04-03T01:45:05;2.70;;;1.35;;
19802;SDS011;66074;50.764;6.090;2023-04-03T01:47:30;2.33;;;1.40;;
19802;SDS011;66074;50.764;6.090;2023-04-03T01:49:56;2.40;;;1.60;;
19802;SDS011;66074;50.764;6.090;2023-04-03T01:52:22;1.55;;;1.40;;
19802;SDS011;66074;50.764;6.090;2023-04-03T01:54:47;2.05;;;1.63;;
19802;SDS011;66074;50.764;6.090;2023-04-03T01:57:13;2.78;;;1.80;;
19802;SDS011;66074;50.764;6.090;2023-04-03T01:59:40;2.20;;;1.70;;
19802;SDS011;66074;50.764;6.090;2023-04-03T02:02:06;2.40;;;1.88;;
19802;SDS011;66074;50.764;6.090;2023-04-03T02:04:31;3.35;;;1.85;;
19802;SDS011;66074;50.764;6.090;2023-04-03T02:06:57;2.58;;;1.50;;
19802;SDS011;66074;50.764;6.090;2023-04-03T02:09:23;3.25;;;1.80;;
19802;SDS011;66074;50.764;6.090;2023-04-03T02:11:48;2.25;;;1.50;;
19802;SDS011;66074;50.764;6.090;2023-04-03T02:14:14;1.77;;;1.42;;
19802;SDS011;66074;50.764;6.090;2023-04-03T02:16:40;3.25;;;1.67;;
19802;SDS011;66074;50.764;6.090;2023-04-03T02:19:06;2.15;;;1.65;;
19802;SDS011;66074;50.764;6.090;2023-04-03T02:21:31;2.30;;;1.40;;
19802;SDS011;66074;50.764;6.090;2023-04-03T02:23:57;1.83;;;1.65;;
19802;SDS011;66074;50.764;6.090;2023-04-03T02:26:23;1.88;;;1.45;;
19802;SDS011;66074;50.764;6.090;2023-04-03T02:28:48;1.90;;;1.50;;
19802;SDS011;66074;50.764;6.090;2023-04-03T02:31:14;2.20;;;1.85;;
19802;SDS011;66074;50.764;6.090;2023-04-03T02:33:40;2.83;;;1.33;;
19802;SDS011;66074;50.764;6.090;2023-04-03T02:36:06;4.28;;;1.88;;
19802;SDS011;66074;50.764;6.090;2023-04-03T02:38:33;1.50;;;1.40;;
19802;SDS011;66074;50.764;6.090;2023-04-03T02:41:03;1.73;;;1.50;;
19802;SDS011;66074;50.764;6.090;2023-04-03T02:43:33;3.47;;;1.95;;
19802;SDS011;66074;50.764;6.090;2023-04-03T02:45:59;2.55;;;1.80;;
19802;SDS011;66074;50.764;6.090;2023-04-03T02:48:25;2.13;;;1.67;;
19802;SDS011;66074;50.764;6.090;2023-04-03T02:50:51;1.73;;;1.60;;
19802;SDS011;66074;50.764;6.090;2023-04-03T02:53:17;3.08;;;1.60;;
19802;SDS011;66074;50.764;6.090;2023-04-03T02:55:43;2.83;;;1.70;;
19802;SDS011;66074;50.764;6.090;2023-04-03T02:58:09;2.72;;;1.75;;
19802;SDS011;66074;50.764;6.090;2023-04-03T03:00:35;2.60;;;1.83;;
19802;SDS011;66074;50.764;6.090;2023-04-03T03:03:01;2.08;;;1.58;;
19802;SDS011;66074;50.764;6.090;2023-04-03T03:05:27;1.95;;;1.50;;
19802;SDS011;66074;50.764;6.090;2023-04-03T03:07:53;1.92;;;1.50;;
19802;SDS011;66074;50.764;6.090;2023-04-03T03:10:19;1.98;;;1.58;;
19802;SDS011;66074;50.764;6.090;2023-04-03T03:12:45;2.53;;;1.90;;
19802;SDS011;66074;50.764;6.090;2023-04-03T03:15:11;1.77;;;1.60;;
19802;SDS011;66074;50.764;6.090;2023-04-03T03:17:36;2.53;;;1.60;;
19802;SDS011;66074;50.764;6.090;2023-04-03T03:20:03;2.22;;;1.60;;
19802;SDS011;66074;50.764;6.090;2023-04-03T03:22:29;1.80;;;1.67;;
19802;SDS011;66074;50.764;6.090;2023-04-03T03:24:55;3.22;;;1.70;;
19802;SDS011;66074;50.764;6.090;2023-04-03T03:27:21;2.00;;;1.50;;
19802;SDS011;66074;50.764;6.090;2023-04-03T03:29:47;2.20;;;1.48;;
19802;SDS011;66074;50.764;6.090;2023-04-03T03:32:12;6.43;;;1.88;;
19802;SDS011;66074;50.764;6.090;2023-04-03T03:34:38;2.17;;;1.75;;
19802;SDS011;66074;50.764;6.090;2023-04-03T03:37:04;3.47;;;2.35;;
19802;SDS011;66074;50.764;6.090;2023-04-03T03:39:30;3.35;;;1.80;;
19802;SDS011;66074;50.764;6.090;2023-04-03T03:41:55;2.38;;;1.52;;
19802;SDS011;66074;50.764;6.090;2023-04-03T03:44:22;2.22;;;1.70;;
19802;SDS011;66074;50.764;6.090;2023-04-03T03:46:47;2.00;;;1.88;;
19802;SDS011;66074;50.764;6.090;2023-04-03T03:49:13;2.53;;;1.80;;
19802;SDS011;66074;50.764;6.090;2023-04-03T03:51:39;1.98;;;1.45;;
19802;SDS011;66074;50.764;6.090;2023-04-03T03:54:05;2.10;;;1.90;;
19802;SDS011;66074;50.764;6.090;2023-04-03T03:56:31;3.83;;;2.10;;
19802;SDS011;66074;50.764;6.090;2023-04-03T03:58:57;2.50;;;2.00;;
19802;SDS011;66074;50.764;6.090;2023-04-03T04:01:23;3.38;;;2.22;;
19802;SDS011;66074;50.764;6.090;2023-04-03T04:03:49;2.30;;;1.85;;
19802;SDS011;66074;50.764;6.090;2023-04-03T04:06:15;2.88;;;2.28;;
19802;SDS011;66074;50.764;6.090;2023-04-03T04:08:41;2.28;;;2.08;;
19802;SDS011;66074;50.764;6.090;2023-04-03T04:11:07;2.08;;;1.90;;
19802;SDS011;66074;50.764;6.090;2023-04-03T04:13:33;4.00;;;2.30;;
19802;SDS011;66074;50.764;6.090;2023-04-03T04:15:58;2.65;;;1.65;;
19802;SDS011;66074;50.764;6.090;2023-04-03T04:18:24;3.15;;;2.47;;
19802;SDS011;66074;50.764;6.090;2023-04-03T04:20:50;5.07;;;2.00;;
19802;SDS011;66074;50.764;6.090;2023-04-03T04:23:16;2.75;;;2.15;;
19802;SDS011;66074;50.764;6.090;2023-04-03T04:25:44;3.10;;;2.20;;
19802;SDS011;66074;50.764;6.090;2023-04-03T04:28:10;3.28;;;2.53;;
19802;SDS011;66074;50.764;6.090;2023-04-03T04:30:36;2.00;;;1.75;;
19802;SDS011;66074;50.764;6.090;2023-04-03T04:33:02;3.28;;;2.63;;
19802;SDS011;66074;50.764;6.090;2023-04-03T04:35:28;4.07;;;2.70;;
19802;SDS011;66074;50.764;6.090;2023-04-03T04:37:53;3.30;;;2.80;;
19802;SDS011;66074;50.764;6.090;2023-04-03T04:40:19;2.85;;;2.65;;
19802;SDS011;66074;50.764;6.090;2023-04-03T04:42:45;3.70;;;3.40;;
19802;SDS011;66074;50.764;6.090;2023-04-03T04:45:11;4.70;;;3.28;;
19802;SDS011;66074;50.764;6.090;2023-04-03T04:47:36;3.45;;;2.85;;
19802;SDS011;66074;50.764;6.090;2023-04-03T04:50:02;3.70;;;2.45;;
19802;SDS011;66074;50.764;6.090;2023-04-03T04:52:28;3.55;;;3.25;;
19802;SDS011;66074;50.764;6.090;2023-04-03T04:54:54;3.80;;;2.97;;
19802;SDS011;66074;50.764;6.090;2023-04-03T04:57:19;2.95;;;2.72;;
19802;SDS011;66074;50.764;6.090;2023-04-03T04:59:45;4.30;;;2.70;;
19802;SDS011;66074;50.764;6.090;2023-04-03T05:02:11;6.32;;;2.90;;
19802;SDS011;66074;50.764;6.090;2023-04-03T05:04:36;5.40;;;3.83;;
19802;SDS011;66074;50.764;6.090;2023-04-03T05:07:02;3.20;;;2.90;;
19802;SDS011;66074;50.764;6.090;2023-04-03T05:09:27;4.35;;;3.30;;
19802;SDS011;66074;50.764;6.090;2023-04-03T05:11:53;6.47;;;3.65;;
19802;SDS011;66074;50.764;6.090;2023-04-03T05:14:19;3.97;;;3.67;;
19802;SDS011;66074;50.764;6.090;2023-04-03T05:16:44;5.20;;;4.22;;
19802;SDS011;66074;50.764;6.090;2023-04-03T05:19:10;6.03;;;4.75;;
19802;SDS011;66074;50.764;6.090;2023-04-03T05:21:36;6.78;;;5.03;;
19802;SDS011;66074;50.764;6.090;2023-04-03T05:24:01;8.27;;;4.60;;
19802;SDS011;66074;50.764;6.090;2023-04-03T05:26:28;4.22;;;3.72;;
19802;SDS011;66074;50.764;6.090;2023-04-03T05:28:55;8.52;;;4.78;;
19802;SDS011;66074;50.764;6.090;2023-04-03T05:31:21;6.55;;;4.05;;
19802;SDS011;66074;50.764;6.090;2023-04-03T05:33:46;5.30;;;4.78;;
19802;SDS011;66074;50.764;6.090;2023-04-03T05:36:12;7.68;;;5.32;;
19802;SDS011;66074;50.764;6.090;2023-04-03T05:38:38;7.22;;;5.45;;
19802;SDS011;66074;50.764;6.090;2023-04-03T05:41:04;6.72;;;4.20;;
19802;SDS011;66074;50.764;6.090;2023-04-03T05:43:30;7.97;;;4.78;;
19802;SDS011;66074;50.764;6.090;2023-04-03T05:45:55;4.57;;;3.33;;
19802;SDS011;66074;50.764;6.090;2023-04-03T05:48:21;8.70;;;3.65;;
19802;SDS011;66074;50.764;6.090;2023-04-03T05:50:46;6.80;;;3.30;;
19802;SDS011;66074;50.764;6.090;2023-04-03T05:53:15;6.50;;;3.80;;
19802;SDS011;66074;50.764;6.090;2023-04-03T05:55:47;6.28;;;3.70;;
19802;SDS011;66074;50.764;6.090;2023-04-03T05:58:13;6.25;;;4.10;;
19802;SDS011;66074;50.764;6.090;2023-04-03T06:00:38;5.32;;;4.43;;
19802;SDS011;66074;50.764;6.090;2023-04-03T06:03:05;5.63;;;3.80;;
19802;SDS011;66074;50.764;6.090;2023-04-03T06:05:31;9.15;;;4.30;;
19802;SDS011;66074;50.764;6.090;2023-04-03T06:07:56;8.90;;;4.63;;
19802;SDS011;66074;50.764;6.090;2023-04-03T06:10:22;10.38;;;4.38;;
19802;SDS011;66074;50.764;6.090;2023-04-03T06:12:48;8.00;;;4.85;;
19802;SDS011;66074;50.764;6.090;2023-04-03T06:15:14;6.95;;;4.25;;
19802;SDS011;66074;50.764;6.090;2023-04-03T06:17:40;8.07;;;4.35;;
19802;SDS011;66074;50.764;6.090;2023-04-03T06:20:06;8.27;;;3.95;;
19802;SDS011;66074;50.764;6.090;2023-04-03T06:22:32;11.50;;;4.32;;
19802;SDS011;66074;50.764;6.090;2023-04-03T06:24:58;11.65;;;5.32;;
19802;SDS011;66074;50.764;6.090;2023-04-03T06:27:24;7.85;;;4.20;;
19802;SDS011;66074;50.764;6.090;2023-04-03T06:29:49;7.00;;;4.18;;
19802;SDS011;66074;50.764;6.090;2023-04-03T06:32:15;10.13;;;4.38;;
19802;SDS011;66074;50.764;6.090;2023-04-03T06:34:41;9.15;;;4.88;;
19802;SDS011;66074;50.764;6.090;2023-04-03T06:37:10;5.22;;;4.13;;
19802;SDS011;66074;50.764;6.090;2023-04-03T06:39:42;8.80;;;4.32;;
19802;SDS011;66074;50.764;6.090;2023-04-03T06:42:08;5.88;;;4.47;;
19802;SDS011;66074;50.764;6.090;2023-04-03T06:44:33;8.50;;;4.43;;
19802;SDS011;66074;50.764;6.090;2023-04-03T06:46:59;7.38;;;4.65;;
19802;SDS011;66074;50.764;6.090;2023-04-03T06:49:25;4.68;;;4.22;;
19802;SDS011;66074;50.764;6.090;2023-04-03T06:51:51;7.18;;;4.88;;
19802;SDS011;66074;50.764;6.090;2023-04-03T06:54:17;7.60;;;5.40;;
19802;SDS011;66074;50.764;6.090;2023-04-03T06:56:43;8.63;;;4.78;;
19802;SDS011;66074;50.764;6.090;2023-04-03T06:59:09;9.10;;;4.88;;
19802;SDS011;66074;50.764;6.090;2023-04-03T07:01:37;8.15;;;4.38;;
19802;SDS011;66074;50.764;6.090;2023-04-03T07:04:02;6.45;;;4.25;;
19802;SDS011;66074;50.764;6.090;2023-04-03T07:06:28;8.23;;;4.53;;
19802;SDS011;66074;50.764;6.090;2023-04-03T07:08:54;6.72;;;3.58;;
19802;SDS011;66074;50.764;6.090;2023-04-03T07:11:20;5.28;;;3.45;;
19802;SDS011;66074;50.764;6.090;2023-04-03T07:13:46;9.40;;;3.83;;
19802;SDS011;66074;50.764;6.090;2023-04-03T07:16:11;5.82;;;3.63;;
19802;SDS011;66074;50.764;6.090;2023-04-03T07:18:37;5.13;;;3.08;;
19802;SDS011;66074;50.764;6.090;2023-04-03T07:21:03;5.82;;;3.40;;
19802;SDS011;66074;50.764;6.090;2023-04-03T07:23:29;5.72;;;3.03;;
19802;SDS011;66074;50.764;6.090;2023-04-03T07:25:55;4.30;;;2.42;;
19802;SDS011;66074;50.764;6.090;2023-04-03T07:28:21;7.93;;;3.03;;
19802;SDS011;66074;50.764;6.090;2023-04-03T07:31:33;4.13;;;2.67;;
19802;SDS011;66074;50.764;6.090;2023-04-03T07:33:41;6.28;;;2.90;;
19802;SDS011;66074;50.764;6.090;2023-04-03T07:36:07;2.67;;;2.20;;
19802;SDS011;66074;50.764;6.090;2023-04-03T07:38:36;5.30;;;2.45;;
19802;SDS011;66074;50.764;6.090;2023-04-03T07:41:02;4.45;;;2.65;;
19802;SDS011;66074;50.764;6.090;2023-04-03T07:43:28;3.08;;;2.40;;
19802;SDS011;66074;50.764;6.090;2023-04-03T07:45:54;5.03;;;2.20;;
19802;SDS011;66074;50.764;6.090;2023-04-03T07:48:21;5.35;;;2.03;;
19802;SDS011;66074;50.764;6.090;2023-04-03T07:50:48;3.90;;;2.88;;
19802;SDS011;66074;50.764;6.090;2023-04-03T07:53:14;3.22;;;2.38;;
19802;SDS011;66074;50.764;6.090;2023-04-03T07:55:40;6.07;;;2.30;;
19802;SDS011;66074;50.764;6.090;2023-04-03T07:58:11;5.57;;;3.20;;
19802;SDS011;66074;50.764;6.090;2023-04-03T08:00:39;2.00;;;1.73;;
19802;SDS011;66074;50.764;6.090;2023-04-03T08:03:06;5.45;;;2.38;;
19802;SDS011;66074;50.764;6.090;2023-04-03T08:05:36;4.03;;;2.38;;
19802;SDS011;66074;50.764;6.090;2023-04-03T08:08:03;3.70;;;2.13;;
19802;SDS011;66074;50.764;6.090;2023-04-03T08:10:30;3.55;;;2.13;;
19802;SDS011;66074;50.764;6.090;2023-04-03T08:12:56;3.80;;;2.10;;
19802;SDS011;66074;50.764;6.090;2023-04-03T08:15:22;2.10;;;1.60;;
19802;SDS011;66074;50.764;6.090;2023-04-03T08:17:48;3.15;;;1.67;;
19802;SDS011;66074;50.764;6.090;2023-04-03T08:20:13;4.07;;;2.45;;
19802;SDS011;66074;50.764;6.090;2023-04-03T08:22:39;2.47;;;1.90;;
19802;SDS011;66074;50.764;6.090;2023-04-03T08:25:07;3.10;;;1.75;;
19802;SDS011;66074;50.764;6.090;2023-04-03T08:27:33;7.65;;;2.60;;
19802;SDS011;66074;50.764;6.090;2023-04-03T08:29:59;2.95;;;1.75;;
19802;SDS011;66074;50.764;6.090;2023-04-03T08:32:24;7.50;;;2.00;;
19802;SDS011;66074;50.764;6.090;2023-04-03T08:34:50;5.55;;;2.85;;
19802;SDS011;66074;50.764;6.090;2023-04-03T08:37:16;4.28;;;2.00;;
19802;SDS011;66074;50.764;6.090;2023-04-03T08:39:42;4.82;;;2.20;;
19802;SDS011;66074;50.764;6.090;2023-04-03T08:47:38;8.20;;;2.42;;
19802;SDS011;66074;50.764;6.090;2023-04-03T08:50:12;5.97;;;2.05;;
19802;SDS011;66074;50.764;6.090;2023-04-03T08:55:23;8.68;;;2.65;;
19802;SDS011;66074;50.764;6.090;2023-04-03T08:57:53;6.60;;;2.90;;
19802;SDS011;66074;50.764;6.090;2023-04-03T09:00:27;7.15;;;2.55;;
19802;SDS011;66074;50.764;6.090;2023-04-03T09:03:11;4.45;;;2.50;;
19802;SDS011;66074;50.764;6.090;2023-04-03T09:06:03;5.55;;;2.03;;
19802;SDS011;66074;50.764;6.090;2023-04-03T09:11:23;17.70;;;3.92;;
19802;SDS011;66074;50.764;6.090;2023-04-03T09:13:59;5.72;;;2.28;;
19802;SDS011;66074;50.764;6.090;2023-04-03T09:17:02;7.45;;;2.20;;
19802;SDS011;66074;50.764;6.090;2023-04-03T09:19:36;6.15;;;2.35;;
19802;SDS011;66074;50.764;6.090;2023-04-03T09:22:24;8.70;;;2.38;;
19802;SDS011;66074;50.764;6.090;2023-04-03T09:25:03;5.57;;;2.47;;
19802;SDS011;66074;50.764;6.090;2023-04-03T09:27:36;4.88;;;2.47;;
19802;SDS011;66074;50.764;6.090;2023-04-03T09:30:02;7.32;;;3.80;;
19802;SDS011;66074;50.764;6.090;2023-04-03T09:32:30;5.30;;;2.35;;
19802;SDS011;66074;50.764;6.090;2023-04-03T09:35:01;7.10;;;1.80;;
19802;SDS011;66074;50.764;6.090;2023-04-03T09:37:53;4.32;;;2.05;;
19802;SDS011;66074;50.764;6.090;2023-04-03T09:42:52;4.63;;;1.70;;
19802;SDS011;66074;50.764;6.090;2023-04-03T09:45:27;3.35;;;2.00;;
19802;SDS011;66074;50.764;6.090;2023-04-03T09:48:06;2.30;;;1.70;;
19802;SDS011;66074;50.764;6.090;2023-04-03T09:50:45;3.00;;;1.60;;
19802;SDS011;66074;50.764;6.090;2023-04-03T09:53:39;3.92;;;1.75;;
19802;SDS011;66074;50.764;6.090;2023-04-03T09:58:42;8.15;;;2.22;;
19802;SDS011;66074;50.764;6.090;2023-04-03T10:01:56;5.43;;;2.10;;
19802;SDS011;66074;50.764;6.090;2023-04-03T10:04:12;6.35;;;2.42;;
19802;SDS011;66074;50.764;6.090;2023-04-03T10:06:40;4.38;;;1.80;;
19802;SDS011;66074;50.764;6.090;2023-04-03T10:09:27;7.45;;;1.80;;
19802;SDS011;66074;50.764;6.090;2023-04-03T10:12:06;4.15;;;1.55;;
19802;SDS011;66074;50.764;6.090;2023-04-03T10:14:38;3.22;;;1.75;;
19802;SDS011;66074;50.764;6.090;2023-04-03T10:22:28;3.10;;;1.55;;
19802;SDS011;66074;50.764;6.090;2023-04-03T10:33:43;3.28;;;1.45;;
19802;SDS011;66074;50.764;6.090;2023-04-03T10:44:29;2.45;;;1.48;;
19802;SDS011;66074;50.764;6.090;2023-04-03T10:47:31;3.83;;;1.40;;
19802;SDS011;66074;50.764;6.090;2023-04-03T10:53:07;1.88;;;1.00;;
19802;SDS011;66074;50.764;6.090;2023-04-03T10:56:10;1.55;;;1.30;;
19802;SDS011;66074;50.764;6.090;2023-04-03T10:58:39;5.25;;;1.67;;
19802;SDS011;66074;50.764;6.090;2023-04-03T11:01:23;2.90;;;1.20;;
19802;SDS011;66074;50.764;6.090;2023-04-03T11:03:57;3.97;;;1.70;;
19802;SDS011;66074;50.764;6.090;2023-04-03T11:06:24;2.08;;;1.20;;
19802;SDS011;66074;50.764;6.090;2023-04-03T11:08:57;8.25;;;1.90;;
19802;SDS011;66074;50.764;6.090;2023-04-03T11:11:32;2.95;;;1.50;;
19802;SDS011;66074;50.764;6.090;2023-04-03T11:16:46;3.60;;;1.10;;
19802;SDS011;66074;50.764;6.090;2023-04-03T11:24:31;3.00;;;1.42;;
19802;SDS011;66074;50.764;6.090;2023-04-03T11:26:58;3.97;;;1.58;;
19802;SDS011;66074;50.764;6.090;2023-04-03T11:29:27;2.55;;;1.30;;
19802;SDS011;66074;50.764;6.090;2023-04-03T11:34:56;21.52;;;4.22;;
19802;SDS011;66074;50.764;6.090;2023-04-03T11:37:35;3.53;;;2.20;;
19802;SDS011;66074;50.764;6.090;2023-04-03T11:40:20;4.45;;;2.35;;
19802;SDS011;66074;50.764;6.090;2023-04-03T11:42:52;3.10;;;1.52;;
19802;SDS011;66074;50.764;6.090;2023-04-03T11:45:30;3.15;;;2.10;;
19802;SDS011;66074;50.764;6.090;2023-04-03T11:48:03;5.72;;;3.13;;
19802;SDS011;66074;50.764;6.090;2023-04-03T11:50:49;2.45;;;1.33;;
19802;SDS011;66074;50.764;6.090;2023-04-03T11:56:03;3.97;;;1.35;;
19802;SDS011;66074;50.764;6.090;2023-04-03T11:58:33;5.53;;;1.85;;
19802;SDS011;66074;50.764;6.090;2023-04-03T12:34:39;2.58;;;1.23;;
19802;SDS011;66074;50.764;6.090;2023-04-03T12:45:37;3.78;;;0.90;;
19802;SDS011;66074;50.764;6.090;2023-04-03T12:48:08;3.72;;;1.35;;
19802;SDS011;66074;50.764;6.090;2023-04-03T12:50:42;3.97;;;1.30;;
19802;SDS011;66074;50.764;6.090;2023-04-03T12:53:12;5.88;;;1.20;;
19802;SDS011;66074;50.764;6.090;2023-04-03T12:55:44;1.40;;;1.02;;
19802;SDS011;66074;50.764;6.090;2023-04-03T12:58:19;2.47;;;1.27;;
19802;SDS011;66074;50.764;6.090;2023-04-03T13:00:58;3.85;;;2.20;;
19802;SDS011;66074;50.764;6.090;2023-04-03T13:03:37;5.45;;;2.03;;
19802;SDS011;66074;50.764;6.090;2023-04-03T13:06:05;2.40;;;1.10;;
19802;SDS011;66074;50.764;6.090;2023-04-03T13:08:31;2.40;;;1.30;;
19802;SDS011;66074;50.764;6.090;2023-04-03T13:11:06;2.55;;;1.33;;
19802;SDS011;66074;50.764;6.090;2023-04-03T13:13:37;4.10;;;1.55;;
19802;SDS011;66074;50.764;6.090;2023-04-03T13:16:10;1.88;;;1.50;;
19802;SDS011;66074;50.764;6.090;2023-04-03T13:18:37;3.05;;;1.50;;
19802;SDS011;66074;50.764;6.090;2023-04-03T13:21:24;5.20;;;2.08;;
19802;SDS011;66074;50.764;6.090;2023-04-03T13:23:52;3.40;;;1.38;;
19802;SDS011;66074;50.764;6.090;2023-04-03T13:26:22;4.82;;;1.90;;
19802;SDS011;66074;50.764;6.090;2023-04-03T13:28:49;2.03;;;1.25;;
19802;SDS011;66074;50.764;6.090;2023-04-03T13:31:18;12.20;;;1.50;;
19802;SDS011;66074;50.764;6.090;2023-04-03T13:36:24;2.35;;;1.20;;
19802;SDS011;66074;50.764;6.090;2023-04-03T13:39:00;10.27;;;1.67;;
19802;SDS011;66074;50.764;6.090;2023-04-03T13:41:39;2.25;;;0.77;;
19802;SDS011;66074;50.764;6.090;2023-04-03T13:46:41;2.17;;;0.98;;
19802;SDS011;66074;50.764;6.090;2023-04-03T13:49:20;2.13;;;0.80;;
19802;SDS011;66074;50.764;6.090;2023-04-03T13:51:55;1.58;;;0.90;;
19802;SDS011;66074;50.764;6.090;2023-04-03T13:54:22;1.58;;;0.88;;
19802;SDS011;66074;50.764;6.090;2023-04-03T13:56:56;2.13;;;1.00;;
19802;SDS011;66074;50.764;6.090;2023-04-03T13:59:27;1.55;;;0.93;;
19802;SDS011;66074;50.764;6.090;2023-04-03T14:06:55;1.73;;;1.20;;
19802;SDS011;66074;50.764;6.090;2023-04-03T14:09:22;2.70;;;0.85;;
19802;SDS011;66074;50.764;6.090;2023-04-03T14:11:50;1.27;;;0.80;;
19802;SDS011;66074;50.764;6.090;2023-04-03T14:14:20;2.15;;;0.85;;
19802;SDS011;66074;50.764;6.090;2023-04-03T14:16:59;1.00;;;0.70;;
19802;SDS011;66074;50.764;6.090;2023-04-03T14:19:30;1.92;;;1.00;;
19802;SDS011;66074;50.764;6.090;2023-04-03T14:21:59;2.45;;;1.50;;
19802;SDS011;66074;50.764;6.090;2023-04-03T14:24:31;2.92;;;1.13;;
19802;SDS011;66074;50.764;6.090;2023-04-03T14:26:57;4.78;;;2.15;;
19802;SDS011;66074;50.764;6.090;2023-04-03T14:29:23;3.38;;;0.60;;
19802;SDS011;66074;50.764;6.090;2023-04-03T14:31:49;2.58;;;0.95;;
19802;SDS011;66074;50.764;6.090;2023-04-03T14:34:15;7.68;;;1.60;;
19802;SDS011;66074;50.764;6.090;2023-04-03T14:36:42;2.83;;;1.35;;
19802;SDS011;66074;50.764;6.090;2023-04-03T14:39:16;4.10;;;0.80;;
19802;SDS011;66074;50.764;6.090;2023-04-03T14:41:43;2.25;;;1.00;;
19802;SDS011;66074;50.764;6.090;2023-04-03T14:44:09;1.02;;;0.80;;
19802;SDS011;66074;50.764;6.090;2023-04-03T14:46:35;2.45;;;1.05;;
19802;SDS011;66074;50.764;6.090;2023-04-03T14:49:05;3.75;;;0.90;;
19802;SDS011;66074;50.764;6.090;2023-04-03T14:51:39;1.75;;;0.82;;
19802;SDS011;66074;50.764;6.090;2023-04-03T14:54:05;1.33;;;0.82;;
19802;SDS011;66074;50.764;6.090;2023-04-03T14:56:36;2.88;;;1.00;;
19802;SDS011;66074;50.764;6.090;2023-04-03T14:59:01;2.33;;;1.10;;
19802;SDS011;66074;50.764;6.090;2023-04-03T15:01:27;2.45;;;0.98;;
19802;SDS011;66074;50.764;6.090;2023-04-03T15:03:53;4.72;;;1.55;;
19802;SDS011;66074;50.764;6.090;2023-04-03T15:06:19;2.03;;;1.00;;
19802;SDS011;66074;50.764;6.090;2023-04-03T15:08:46;1.50;;;1.05;;
19802;SDS011;66074;50.764;6.090;2023-04-03T15:11:13;2.65;;;1.73;;
19802;SDS011;66074;50.764;6.090;2023-04-03T15:13:39;5.78;;;1.50;;
19802;SDS011;66074;50.764;6.090;2023-04-03T15:16:10;2.55;;;0.90;;
19802;SDS011;66074;50.764;6.090;2023-04-03T15:18:40;2.95;;;0.80;;
19802;SDS011;66074;50.764;6.090;2023-04-03T15:21:06;1.73;;;1.13;;
19802;SDS011;66074;50.764;6.090;2023-04-03T15:23:32;4.07;;;1.10;;
19802;SDS011;66074;50.764;6.090;2023-04-03T15:25:57;1.35;;;0.77;;
19802;SDS011;66074;50.764;6.090;2023-04-03T15:28:33;3.30;;;0.93;;
19802;SDS011;66074;50.764;6.090;2023-04-03T15:31:05;1.77;;;0.80;;
19802;SDS011;66074;50.764;6.090;2023-04-03T15:33:32;1.52;;;0.80;;
19802;SDS011;66074;50.764;6.090;2023-04-03T15:35:59;4.95;;;1.77;;
19802;SDS011;66074;50.764;6.090;2023-04-03T15:38:25;2.45;;;1.30;;
19802;SDS011;66074;50.764;6.090;2023-04-03T15:40:51;4.55;;;1.30;;
19802;SDS011;66074;50.764;6.090;2023-04-03T15:43:16;3.50;;;1.23;;
19802;SDS011;66074;50.764;6.090;2023-04-03T15:45:43;4.15;;;1.70;;
19802;SDS011;66074;50.764;6.090;2023-04-03T15:48:10;3.25;;;1.13;;
19802;SDS011;66074;50.764;6.090;2023-04-03T15:50:36;2.72;;;1.17;;
19802;SDS011;66074;50.764;6.090;2023-04-03T15:53:02;1.50;;;1.10;;
19802;SDS011;66074;50.764;6.090;2023-04-03T15:55:29;2.97;;;1.00;;
19802;SDS011;66074;50.764;6.090;2023-04-03T15:57:57;1.42;;;0.90;;
19802;SDS011;66074;50.764;6.090;2023-04-03T16:00:25;2.60;;;1.15;;
19802;SDS011;66074;50.764;6.090;2023-04-03T16:02:52;2.58;;;1.30;;
19802;SDS011;66074;50.764;6.090;2023-04-03T16:05:22;2.38;;;1.15;;
19802;SDS011;66074;50.764;6.090;2023-04-03T16:07:48;4.22;;;2.05;;
19802;SDS011;66074;50.764;6.090;2023-04-03T16:10:15;1.75;;;1.00;;
19802;SDS011;66074;50.764;6.090;2023-04-03T16:12:42;2.63;;;1.00;;
19802;SDS011;66074;50.764;6.090;2023-04-03T16:15:08;3.80;;;1.10;;
19802;SDS011;66074;50.764;6.090;2023-04-03T16:17:36;3.75;;;1.15;;
19802;SDS011;66074;50.764;6.090;2023-04-03T16:20:03;6.80;;;2.38;;
19802;SDS011;66074;50.764;6.090;2023-04-03T16:22:30;1.83;;;1.02;;
19802;SDS011;66074;50.764;6.090;2023-04-03T16:24:56;2.53;;;1.20;;
19802;SDS011;66074;50.764;6.090;2023-04-03T16:27:21;2.28;;;0.90;;
19802;SDS011;66074;50.764;6.090;2023-04-03T16:29:52;1.50;;;1.05;;
19802;SDS011;66074;50.764;6.090;2023-04-03T16:32:21;2.75;;;1.27;;
19802;SDS011;66074;50.764;6.090;2023-04-03T16:34:48;1.70;;;1.30;;
19802;SDS011;66074;50.764;6.090;2023-04-03T16:37:14;1.98;;;1.10;;
19802;SDS011;66074;50.764;6.090;2023-04-03T16:39:40;2.67;;;1.00;;
19802;SDS011;66074;50.764;6.090;2023-04-03T16:42:06;3.58;;;1.40;;
19802;SDS011;66074;50.764;6.090;2023-04-03T16:44:34;1.77;;;1.00;;
19802;SDS011;66074;50.764;6.090;2023-04-03T16:47:00;3.47;;;1.23;;
19802;SDS011;66074;50.764;6.090;2023-04-03T16:49:26;3.67;;;0.82;;
19802;SDS011;66074;50.764;6.090;2023-04-03T16:51:57;1.40;;;1.10;;
19802;SDS011;66074;50.764;6.090;2023-04-03T16:54:22;3.95;;;1.45;;
19802;SDS011;66074;50.764;6.090;2023-04-03T16:56:48;1.65;;;1.10;;